Friday, May 25, 2018, 8:19 PM EDT
Back to Local

KRME, Griffiss Airfield

Location: Rome, NY, United States Lat: 43.233
Local Time: 8:19 PM EDT ( 0:19 GMT) Lon: -75.4
Time Zone: US/Eastern Elev: 505 ft

Show me the last for .
Show Decoded

2018-05-25 19:53 METAR KRME 252353Z 25005KT 10SM CLR 26/11 A2980 RMK AO2 SLP087 T02560111 10283
                 20256 56009 =
2018-05-25 18:53 METAR KRME 252253Z 27008KT 10SM CLR 27/11 A2981 RMK AO2 SLP090 T02720106 =
2018-05-25 17:53 METAR KRME 252153Z 26009KT 10SM CLR 28/11 A2981 RMK AO2 SLP092 T02780111 =
2018-05-25 16:53 METAR KRME 252053Z 28012KT 10SM CLR 28/11 A2983 RMK AO2 SLP097 T02780106 56020 =
2018-05-25 15:53 METAR KRME 251953Z 25012G20KT 10SM CLR 28/11 A2985 RMK AO2 SLP104 T02830111 =
2018-05-25 14:53 METAR KRME 251853Z 25017G21KT 10SM CLR 28/12 A2986 RMK AO2 SLP110 T02780122 =
2018-05-25 13:53 METAR KRME 251753Z 25012G18KT 10SM CLR 27/12 A2989 RMK AO2 SLP117 T02720122
                 10272 20139 56026 =
2018-05-25 12:53 METAR KRME 251653Z 24011KT 10SM CLR 27/12 A2991 RMK AO2 SLP124 T02670117 =
2018-05-25 11:53 METAR KRME 251553Z 26011KT 10SM CLR 26/11 A2993 RMK AO2 SLP133 T02560111 =
2018-05-25 10:53 METAR KRME 251453Z 29010KT 10SM CLR 23/12 A2997 RMK AO2 SLP144 T02330117 58016 =
2018-05-25 09:53 METAR KRME 251353Z VRB03KT 10SM CLR 21/11 A2998 RMK AO2 SLP151 T02110111 =
2018-05-25 08:53 METAR KRME 251253Z 00000KT 10SM CLR 18/12 A3000 RMK AO2 SLP157 T01830122 =
2018-05-25 07:53 METAR KRME 251153Z 00000KT 10SM CLR 14/12 A3001 RMK AO2 SLP160 T01390117 10139
                 20083 58006 =
2018-05-25 06:53 METAR KRME 251053Z 11003KT 10SM CLR 11/09 A3003 RMK AO2 SLP164 T01060094 =
2018-05-25 05:53 METAR KRME 250953Z AUTO 00000KT 10SM CLR 09/09 A3003 RMK AO2 SLP164 T00940089 =
2018-05-25 04:53 METAR KRME 250853Z AUTO 00000KT 10SM CLR 09/09 A3003 RMK AO2 SLP166 T00940089
                 57003 =
2018-05-25 03:53 METAR KRME 250753Z AUTO 00000KT 10SM CLR 10/09 A3004 RMK AO2 SLP168 T01000094 =
2018-05-25 02:53 METAR KRME 250653Z AUTO 00000KT 10SM CLR 11/10 A3004 RMK AO2 SLP168 T01110100 =
2018-05-25 01:53 METAR KRME 250553Z AUTO 00000KT 10SM CLR 11/10 A3004 RMK AO2 SLP169 T01110100
                 10228 20106 58010 =
2018-05-25 00:53 METAR KRME 250453Z AUTO 00000KT 10SM CLR 12/11 A3005 RMK AO2 SLP174 T01170106
                 402500056 =
2018-05-24 23:53 METAR KRME 250353Z AUTO 00000KT 10SM CLR 13/11 A3007 RMK AO2 SLP179 T01330106 =
2018-05-24 22:53 METAR KRME 250253Z AUTO 00000KT 10SM CLR 14/11 A3007 RMK AO2 SLP180 T01390111
                 50001 =
2018-05-24 21:53 METAR KRME 250153Z AUTO 00000KT 10SM CLR 16/11 A3007 RMK AO2 SLP182 T01560111 =
2018-05-24 20:53 METAR KRME 250053Z 06003KT 10SM CLR 18/11 A3006 RMK AO2 SLP179 T01780111 =

Support USWX by starting your Amazon purchase here.